x

Sombrero Key, Fl (smkf1) Weather Station

2:00pm - Wed 30th Jul 2014 All times are CDT. -4 hours from GMT.

  • Wind
    13mph, 14mph gusts
  • Air Temp 85°f
  • Sea Pressure 1016.7mb
  • Sombrero Key, Fl
  • Sombrero Key, Fl

More Historic Weather Station data

Upgrade to MSW Pro to gain access to the past 30 days of data for over 8000 Wavebouys and Weather Stations around the globe.

Join Pro

Comparision Forecast

View Surf forecast
   
Wed 07/30 2:00pm 13 14 mph 1016.7mb 85f
1:00pm 13 14 mph 1017mb 85f
12:00pm 10 11 mph 1017.3mb 86f
11:00am 5 6 mph 1017.5mb 85f
10:00am 8 10 mph 1017.4mb 85f
9:00am 9 11 mph 1017mb 85f
8:00am 11 14 mph 1016.5mb 84f
7:00am 10
mph
1016.4mb 85f
6:00am 8 9 mph 1015.7mb 85f
5:00am 10 11 mph 1015.9mb 85f
4:00am 9 10 mph 1016.1mb 85f
3:00am 6 8 mph 1016.4mb 85f
2:00am 7 8 mph 1016.7mb 85f
1:00am 9 10 mph 1016.9mb 86f
12:00am 7 8 mph 1017.1mb 86f
Tue 07/29 11:00pm 8 9 mph 1017.2mb 86f
10:00pm 10 11 mph 1016.8mb 86f
9:00pm 13 14 mph 1016.7mb 87f
8:00pm 10 14 mph 1016.6mb 87f
7:00pm 9 11 mph 1016.9mb 88f
6:00pm 13 14 mph 1016.7mb 88f
5:00pm 14 15 mph 1016.3mb 86f
4:00pm 14 15 mph 1016.6mb 86f
3:00pm 13 15 mph 1017.2mb 86f
2:00pm 11 13 mph 1017.8mb 86f
1:00pm 10
mph
1018.1mb 86f
12:00pm 6 8 mph 1018.3mb 86f
11:00am 8 9 mph 1018.1mb 85f
10:00am 7 8 mph 1017.6mb 85f
9:00am 7 8 mph 1017.1mb 85f
8:00am 8 9 mph 1016.9mb 85f
7:00am 9 10 mph 1016.4mb 85f
6:00am 9 10 mph 1016.4mb 84f
5:00am 8 9 mph 1016.4mb 84f
4:00am 11 15 mph 1016.6mb 84f
3:00am 6 7 mph 1017.6mb 84f
2:00am 5 6 mph 1018.2mb 85f
1:00am 3
mph
1018.7mb 85f
12:00am 5
mph
1018.6mb 85f
Mon 07/28 11:00pm  -  1 mph 1018.5mb 85f
10:00pm  -  1 mph 1018.4mb 85f
9:00pm  -  1 mph 1018.3mb 86f
8:00pm  -  1 mph 1018.1mb 86f
7:00pm 2
mph
1018.2mb 88f
6:00pm  -  1 mph 1018.1mb 90f
5:00pm 2
mph
1018.4mb 87f
4:00pm 2 3 mph 1018.6mb 87f
3:00pm  -  1 mph 1019mb 87f
2:00pm  -  mph 1019.8mb 87f
1:00pm 2 3 mph 1019.8mb 87f
12:00pm 5
mph
1020.1mb 87f
11:00am 3 5 mph 1020.1mb 86f
10:00am 5
mph
1020mb 87f
9:00am 1 2 mph 1019.6mb 87f
8:00am 2 3 mph 1019.1mb 87f
7:00am 5 7 mph 1018.7mb 84f
6:00am 2 3 mph 1018.4mb 84f
5:00am 5 6 mph 1018.3mb 83f
4:00am 3 5 mph 1018.8mb 84f
3:00am 5 6 mph 1019.4mb 84f
2:00am 6
mph
1019.8mb 84f
1:00am 6 8 mph 1020.2mb 84f
12:00am 3 5 mph 1020.2mb 85f
Sun 07/27 11:00pm 3 5 mph 1020.3mb 85f
10:00pm 2
mph
1019.6mb 85f
9:00pm  -  1 mph 1019.2mb 85f
8:00pm 3 5 mph 1019.5mb 87f
7:00pm 3 5 mph 1019.4mb 89f
6:00pm 6
mph
1019.4mb 89f
5:00pm 6
mph
1019.3mb 89f
4:00pm 6 7 mph 1019.6mb 89f
3:00pm 5
mph
1020mb 88f
2:00pm 6
mph
1020.2mb 87f
1:00pm 5
mph
1020.6mb 87f
12:00pm 7 8 mph 1020.8mb 87f
11:00am 5 6 mph 1020.9mb 87f
10:00am 5 6 mph 1020.8mb 87f
9:00am 8 9 mph 1020.5mb 87f
8:00am 10 11 mph 1019.9mb 85f
7:00am 7 8 mph 1019.3mb 84f
6:00am 5 6 mph 1018.9mb 84f
5:00am 7 9 mph 1018.5mb 84f
4:00am 13 14 mph 1018.4mb 84f
3:00am 16 18 mph 1018.4mb 84f
2:00am 11 14 mph 1019.2mb 84f
1:00am 11
mph
1019.6mb 84f
12:00am 16 17 mph 1019.9mb 85f
Sat 07/26 11:00pm 16 17 mph 1019.9mb 85f
10:00pm 13 14 mph 1020.1mb 85f
9:00pm 9 10 mph 1019.5mb 85f
8:00pm 7 8 mph 1019mb 86f